Seajet2 — SX6800 — position and weather

sailwx.info

Track history (hours):
 
Tides and Currents Weather Stations Pressure Air Temp Water Temp Dewpoint Dewpoint Depression Visibility Wind Speed Wind Dir Waves Ship Positions

Seajet2

Last reported at 2018-Jun-18 23:00 UTC. Time now 2018-Jun-18 23:18 UTC.
Position N 37°57' E 023°38'.

Length 42 m.

Type: High speed craft. MMSI: 237006600.

Date/timePositionNaut miles runAvg speedWind from/ knotsBaromVisibWave heightAir tempDewpointWater temp
2018-Jun-18 23:00N 37°57' E 023°38'0 0.0
2018-Jun-18 22:30N 37°57' E 023°38'0 0.0
2018-Jun-18 22:00N 37°57' E 023°38'0 0.0
2018-Jun-18 21:30N 37°57' E 023°38'0 0.0
2018-Jun-18 21:00N 37°57' E 023°38'2 4.6
2018-Jun-18 20:31N 37°54' E 023°38'9916.6
2018-Jun-18 14:34N 36°59' E 025°21'236.8
2018-Jun-18 14:31N 37°01' E 025°20'1121.0
2018-Jun-18 14:01N 37°12' E 025°22'1631.1
2018-Jun-18 13:30N 37°27' E 025°20'3 6.8
2018-Jun-18 13:01N 37°24' E 025°18'1835.5
2018-Jun-18 12:31N 37°06' E 025°22'8811.0
2018-Jun-18 04:34N 37°42' E 023°42'235.6
2018-Jun-18 04:30N 37°44' E 023°40'1325.9
2018-Jun-18 04:00N 37°57' E 023°38'0 0.0
2018-Jun-18 03:30N 37°57' E 023°38'0 0.0
2018-Jun-18 03:00N 37°57' E 023°38'0 0.0
2018-Jun-18 02:30N 37°57' E 023°38'0 0.0
2018-Jun-18 02:00N 37°57' E 023°38'0 0.0
2018-Jun-18 01:30N 37°57' E 023°38'0 0.0
2018-Jun-18 01:00N 37°57' E 023°38'0 0.0
2018-Jun-18 00:30N 37°57' E 023°38'0 0.0
2018-Jun-18 00:00N 37°57' E 023°38'0 0.0
2018-Jun-17 23:30N 37°57' E 023°38'0 0.0
2018-Jun-17 23:00N 37°57' E 023°38'0 0.0
2018-Jun-17 22:30N 37°57' E 023°38'0 0.0
2018-Jun-17 22:00N 37°57' E 023°38'1224.6
2018-Jun-17 21:30N 37°45' E 023°43'9111.3
2018-Jun-17 13:27N 36°59' E 025°22'716.2
2018-Jun-17 13:01N 37°06' E 025°22'1733.6
2018-Jun-17 12:31N 37°23' E 025°19'4 8.3
2018-Jun-17 12:00N 37°27' E 025°19'1835.2
2018-Jun-17 11:30N 37°10' E 025°21'1019.6
2018-Jun-17 11:01N 36°60' E 025°20'8913.7
2018-Jun-17 04:34N 37°41' E 023°42'235.8
2018-Jun-17 04:31N 37°43' E 023°41'1427.7
2018-Jun-17 04:00N 37°57' E 023°38'0 0.1
2018-Jun-17 03:30N 37°57' E 023°38'0 0.0
2018-Jun-17 03:00N 37°57' E 023°38'0 0.0
2018-Jun-17 02:30N 37°57' E 023°38'0 0.0
2018-Jun-17 02:00N 37°57' E 023°38'0 0.0
2018-Jun-17 01:30N 37°57' E 023°38'0 0.0
2018-Jun-17 01:00N 37°57' E 023°38'0 0.0
2018-Jun-17 00:30N 37°57' E 023°38'0 0.0
2018-Jun-17 00:00N 37°57' E 023°38'0 0.0
2018-Jun-16 23:30N 37°57' E 023°38'0 0.0
2018-Jun-16 23:00N 37°57' E 023°38'0 0.0
2018-Jun-16 22:30N 37°57' E 023°38'0 0.0
2018-Jun-16 22:00N 37°57' E 023°38'0 0.0
2018-Jun-16 21:30N 37°57' E 023°38'0 0.0
2018-Jun-16 21:00N 37°57' E 023°38'1122.2
2018-Jun-16 20:30N 37°46' E 023°42'9116.0
2018-Jun-16 14:49N 36°59' E 025°21'723.9
2018-Jun-16 14:30N 37°06' E 025°22'1326.0
2018-Jun-16 14:01N 37°19' E 025°19'816.0
2018-Jun-16 13:30N 37°27' E 025°20'1223.4
2018-Jun-16 13:01N 37°16' E 025°21'1020.0
2018-Jun-16 12:31N 37°06' E 025°20'8510.7
2018-Jun-16 04:35N 37°41' E 023°43'334.6
2018-Jun-16 04:30N 37°43' E 023°41'1326.8
2018-Jun-16 04:01N 37°57' E 023°38'0 0.1
2018-Jun-16 03:30N 37°57' E 023°38'0 0.0
2018-Jun-16 03:00N 37°57' E 023°38'0 0.0
2018-Jun-16 02:30N 37°57' E 023°38'0 0.0
2018-Jun-16 02:00N 37°57' E 023°38'0 0.0
2018-Jun-16 01:30N 37°57' E 023°38'0 0.0
2018-Jun-16 01:00N 37°57' E 023°38'0 0.0
2018-Jun-16 00:30N 37°57' E 023°38'0 0.0
2018-Jun-16 00:00N 37°57' E 023°38'0 0.0
2018-Jun-15 23:30N 37°57' E 023°38'0 0.0
2018-Jun-15 23:00N 37°57' E 023°38'0 0.0
2018-Jun-15 22:30N 37°57' E 023°38'0 0.0
2018-Jun-15 22:00N 37°57' E 023°38'0 0.0
2018-Jun-15 21:30N 37°57' E 023°38'1121.6
2018-Jun-15 21:00N 37°46' E 023°43'9212.2
2018-Jun-15 13:26N 36°59' E 025°22'717.0
2018-Jun-15 13:00N 37°06' E 025°22'2130.5
2018-Jun-15 12:20N 37°27' E 025°20'1 3.9
2018-Jun-15 12:00N 37°27' E 025°18'1835.6
2018-Jun-15 11:31N 37°09' E 025°22'917.9
2018-Jun-15 11:00N 37°00' E 025°21'8813.7
2018-Jun-15 04:36N 37°40' E 023°43'335.5
2018-Jun-15 04:30N 37°43' E 023°41'1326.7
2018-Jun-15 04:00N 37°57' E 023°38'0 0.1
2018-Jun-15 03:30N 37°57' E 023°38'0 0.0
2018-Jun-15 03:00N 37°57' E 023°38'0 0.0
2018-Jun-15 02:30N 37°57' E 023°38'0 0.0
2018-Jun-15 02:00N 37°57' E 023°38'0 0.0
2018-Jun-15 01:30N 37°57' E 023°38'0 0.0
2018-Jun-15 01:00N 37°57' E 023°38'0 0.0
2018-Jun-15 00:30N 37°57' E 023°38'0 0.0
2018-Jun-15 00:00N 37°57' E 023°38'0 0.0
2018-Jun-14 23:30N 37°57' E 023°38'0 0.0
2018-Jun-14 23:00N 37°57' E 023°38'0 0.0
2018-Jun-14 22:30N 37°57' E 023°38'0 0.0
2018-Jun-14 22:01N 37°57' E 023°38'10013.5
2018-Jun-14 14:35N 36°59' E 025°22'336.4
2018-Jun-14 14:31N 37°02' E 025°21'1122.6
2018-Jun-14 14:01N 37°13' E 025°20'1427.5
2018-Jun-14 13:30N 37°27' E 025°20'4 8.6
2018-Jun-14 13:01N 37°23' E 025°17'1733.9
2018-Jun-14 12:30N 37°06' E 025°22'8911.2
2018-Jun-14 04:30N 37°44' E 023°40'12 1.9
2018-Jun-13 21:49N 37°56' E 023°37'1032.7
2018-Jun-13 21:30N 37°47' E 023°41'9213.6
2018-Jun-13 14:44N 36°59' E 025°21'731.9
2018-Jun-13 14:30N 37°06' E 025°22'1121.7
2018-Jun-13 14:00N 37°17' E 025°20'1020.3
2018-Jun-13 13:31N 37°27' E 025°20'1529.5
2018-Jun-13 13:01N 37°12' E 025°21'918.8
2018-Jun-13 12:31N 37°03' E 025°20'8210.6
2018-Jun-13 04:43N 37°37' E 023°46'735.7
2018-Jun-13 04:30N 37°43' E 023°40'1427.4
2018-Jun-13 04:00N 37°57' E 023°38'0 0.1
2018-Jun-13 03:30N 37°57' E 023°38'0 0.0
2018-Jun-13 03:00N 37°57' E 023°38'0 0.0
2018-Jun-13 02:30N 37°57' E 023°38'0 0.0
2018-Jun-13 02:00N 37°57' E 023°38'0 0.0
2018-Jun-13 01:30N 37°57' E 023°38'0 0.0
2018-Jun-13 01:00N 37°57' E 023°38'0 0.0
2018-Jun-13 00:30N 37°57' E 023°38'0 0.0
2018-Jun-13 00:00N 37°57' E 023°38'0 0.0
2018-Jun-12 23:30N 37°57' E 023°38'0 0.0
2018-Jun-12 23:00N 37°57' E 023°38'0 0.0
2018-Jun-12 22:30N 37°57' E 023°38'0 0.0
2018-Jun-12 22:00N 37°57' E 023°38'0 0.0
2018-Jun-12 21:30N 37°57' E 023°38'0 0.0
2018-Jun-12 21:00N 37°57' E 023°38'612.6
2018-Jun-12 20:31N 37°50' E 023°40'9613.7
2018-Jun-12 13:29N 36°59' E 025°22'715.1
2018-Jun-12 13:01N 37°06' E 025°22'1734.5
2018-Jun-12 12:31N 37°23' E 025°18'4 8.4
2018-Jun-12 12:00N 37°27' E 025°19'1631.2
2018-Jun-12 11:30N 37°12' E 025°21'917.7
2018-Jun-12 11:01N 37°03' E 025°20'8613.3
2018-Jun-12 04:35N 37°40' E 023°43'336.8
2018-Jun-12 04:30N 37°43' E 023°41'1428.4
2018-Jun-12 04:00N 37°57' E 023°38'0 0.1
2018-Jun-12 03:30N 37°57' E 023°38'0 0.0
2018-Jun-12 03:00N 37°57' E 023°38'0 0.0
2018-Jun-12 02:31N 37°57' E 023°38'0 0.0
2018-Jun-12 02:00N 37°57' E 023°38'0 0.0
2018-Jun-12 01:31N 37°57' E 023°38'0 0.0
2018-Jun-12 01:00N 37°57' E 023°38'0 0.0
2018-Jun-12 00:31N 37°57' E 023°38'0 0.0
2018-Jun-12 00:01N 37°57' E 023°38'0 0.0
2018-Jun-11 23:30N 37°57' E 023°38'0 0.0
2018-Jun-11 23:01N 37°57' E 023°38'0 0.0
2018-Jun-11 22:30N 37°57' E 023°38'0 0.0
2018-Jun-11 22:00N 37°57' E 023°38'0 0.0
2018-Jun-11 21:30N 37°57' E 023°38'0 0.0
2018-Jun-11 21:00N 37°57' E 023°38'510.3
2018-Jun-11 20:31N 37°51' E 023°39'9617.1
2018-Jun-11 14:54N 36°59' E 025°21'718.3
2018-Jun-11 14:31N 37°06' E 025°22'1632.4
2018-Jun-11 14:00N 37°22' E 025°18'2 4.8
2018-Jun-11 13:31N 37°25' E 025°18'1732.7
2018-Jun-11 12:59N 37°08' E 025°22'613.8
2018-Jun-11 12:30N 37°01' E 025°21'8811.3
2018-Jun-11 04:40N 37°41' E 023°42'636.6
2018-Jun-11 04:31N 37°47' E 023°39'1020.1
2018-Jun-11 04:00N 37°57' E 023°38'0 0.1
2018-Jun-11 03:31N 37°57' E 023°38'0 0.0
2018-Jun-11 03:00N 37°57' E 023°38'0 0.0
2018-Jun-11 02:30N 37°57' E 023°38'0 0.0
2018-Jun-11 02:01N 37°57' E 023°38'0 0.0
2018-Jun-11 01:30N 37°57' E 023°38'0 0.0
2018-Jun-11 01:00N 37°57' E 023°38'0 0.0
2018-Jun-11 00:31N 37°57' E 023°38'0 0.0
2018-Jun-11 00:01N 37°57' E 023°38'0 0.0
2018-Jun-10 23:30N 37°57' E 023°38'0 0.0
2018-Jun-10 23:00N 37°57' E 023°38'0 0.0
2018-Jun-10 22:30N 37°57' E 023°38'0 0.0
2018-Jun-10 22:01N 37°57' E 023°38'1020.3
2018-Jun-10 21:30N 37°47' E 023°42'9311.8
2018-Jun-10 13:38N 36°59' E 025°22'536.6
2018-Jun-10 13:30N 37°03' E 025°20'1020.7
2018-Jun-10 13:00N 37°14' E 025°20'1326.3
2018-Jun-10 12:30N 37°27' E 025°20'1122.6
2018-Jun-10 12:01N 37°16' E 025°20'1019.3
2018-Jun-10 11:31N 37°06' E 025°22'8512.3
2018-Jun-10 04:38N 37°40' E 023°44'535.7
2018-Jun-10 04:31N 37°43' E 023°41'1326.6
2018-Jun-10 04:00N 37°57' E 023°38'0 0.1
2018-Jun-10 03:30N 37°57' E 023°38'0 0.0
2018-Jun-10 03:00N 37°57' E 023°38'0 0.0
2018-Jun-10 02:30N 37°57' E 023°38'0 0.0
2018-Jun-10 02:00N 37°57' E 023°38'0 0.0
2018-Jun-10 01:30N 37°57' E 023°38'0 0.0
2018-Jun-10 01:00N 37°57' E 023°38'0 0.0
2018-Jun-10 00:30N 37°57' E 023°38'0 0.0
2018-Jun-10 00:00N 37°57' E 023°38'0 0.0
2018-Jun-09 23:30N 37°57' E 023°38'0 0.0
2018-Jun-09 23:00N 37°57' E 023°38'0 0.0
2018-Jun-09 22:30N 37°57' E 023°38'0 0.0
2018-Jun-09 22:00N 37°57' E 023°38'0 0.0
2018-Jun-09 21:30N 37°57' E 023°38'2 4.5
2018-Jun-09 21:01N 37°54' E 023°38'9915.7
2018-Jun-09 14:42N 36°59' E 025°21'732.8
2018-Jun-09 14:31N 37°06' E 025°20'815.1
2018-Jun-09 14:00N 37°13' E 025°20'1427.6
2018-Jun-09 13:30N 37°27' E 025°20'713.2
2018-Jun-09 13:00N 37°21' E 025°18'1529.3
2018-Jun-09 12:30N 37°06' E 025°22'8310.7
2018-Jun-09 04:44N 37°38' E 023°45'834.9
2018-Jun-09 04:31N 37°44' E 023°40'  
Track history (hours):
 
Tides and Currents Weather Stations Pressure Air Temp Water Temp Dewpoint Dewpoint Depression Visibility Wind Speed Wind Dir Waves Ship Positions

Seajet2

Last reported at 2018-Jun-18 23:00 UTC. Time now 2018-Jun-18 23:18 UTC.
Position N 37°57' E 023°38'.

Length 42 m.

Type: High speed craft. MMSI: 237006600.

Date/timePositionNaut miles runAvg speedWind from/ knotsBaromVisibWave heightAir tempDewpointWater temp
2018-Jun-18 23:00N 37°57' E 023°38'0 0.0
2018-Jun-18 22:30N 37°57' E 023°38'0 0.0
2018-Jun-18 22:00N 37°57' E 023°38'0 0.0
2018-Jun-18 21:30N 37°57' E 023°38'0 0.0
2018-Jun-18 21:00N 37°57' E 023°38'2 4.6
2018-Jun-18 20:31N 37°54' E 023°38'9916.6
2018-Jun-18 14:34N 36°59' E 025°21'236.8
2018-Jun-18 14:31N 37°01' E 025°20'1121.0
2018-Jun-18 14:01N 37°12' E 025°22'1631.1
2018-Jun-18 13:30N 37°27' E 025°20'3 6.8
2018-Jun-18 13:01N 37°24' E 025°18'1835.5
2018-Jun-18 12:31N 37°06' E 025°22'8811.0
2018-Jun-18 04:34N 37°42' E 023°42'235.6
2018-Jun-18 04:30N 37°44' E 023°40'1325.9
2018-Jun-18 04:00N 37°57' E 023°38'0 0.0
2018-Jun-18 03:30N 37°57' E 023°38'0 0.0
2018-Jun-18 03:00N 37°57' E 023°38'0 0.0
2018-Jun-18 02:30N 37°57' E 023°38'0 0.0
2018-Jun-18 02:00N 37°57' E 023°38'0 0.0
2018-Jun-18 01:30N 37°57' E 023°38'0 0.0
2018-Jun-18 01:00N 37°57' E 023°38'0 0.0
2018-Jun-18 00:30N 37°57' E 023°38'0 0.0
2018-Jun-18 00:00N 37°57' E 023°38'0 0.0
2018-Jun-17 23:30N 37°57' E 023°38'0 0.0
2018-Jun-17 23:00N 37°57' E 023°38'0 0.0
2018-Jun-17 22:30N 37°57' E 023°38'0 0.0
2018-Jun-17 22:00N 37°57' E 023°38'1224.6
2018-Jun-17 21:30N 37°45' E 023°43'9111.3
2018-Jun-17 13:27N 36°59' E 025°22'716.2
2018-Jun-17 13:01N 37°06' E 025°22'1733.6
2018-Jun-17 12:31N 37°23' E 025°19'4 8.3
2018-Jun-17 12:00N 37°27' E 025°19'1835.2
2018-Jun-17 11:30N 37°10' E 025°21'1019.6
2018-Jun-17 11:01N 36°60' E 025°20'8913.7
2018-Jun-17 04:34N 37°41' E 023°42'235.8
2018-Jun-17 04:31N 37°43' E 023°41'1427.7
2018-Jun-17 04:00N 37°57' E 023°38'0 0.1
2018-Jun-17 03:30N 37°57' E 023°38'0 0.0
2018-Jun-17 03:00N 37°57' E 023°38'0 0.0
2018-Jun-17 02:30N 37°57' E 023°38'0 0.0
2018-Jun-17 02:00N 37°57' E 023°38'0 0.0
2018-Jun-17 01:30N 37°57' E 023°38'0 0.0
2018-Jun-17 01:00N 37°57' E 023°38'0 0.0
2018-Jun-17 00:30N 37°57' E 023°38'0 0.0
2018-Jun-17 00:00N 37°57' E 023°38'0 0.0
2018-Jun-16 23:30N 37°57' E 023°38'0 0.0
2018-Jun-16 23:00N 37°57' E 023°38'0 0.0
2018-Jun-16 22:30N 37°57' E 023°38'0 0.0
2018-Jun-16 22:00N 37°57' E 023°38'0 0.0
2018-Jun-16 21:30N 37°57' E 023°38'0 0.0
2018-Jun-16 21:00N 37°57' E 023°38'1122.2
2018-Jun-16 20:30N 37°46' E 023°42'9116.0
2018-Jun-16 14:49N 36°59' E 025°21'723.9
2018-Jun-16 14:30N 37°06' E 025°22'1326.0
2018-Jun-16 14:01N 37°19' E 025°19'816.0
2018-Jun-16 13:30N 37°27' E 025°20'1223.4
2018-Jun-16 13:01N 37°16' E 025°21'1020.0
2018-Jun-16 12:31N 37°06' E 025°20'8510.7
2018-Jun-16 04:35N 37°41' E 023°43'334.6
2018-Jun-16 04:30N 37°43' E 023°41'1326.8
2018-Jun-16 04:01N 37°57' E 023°38'0 0.1
2018-Jun-16 03:30N 37°57' E 023°38'0 0.0
2018-Jun-16 03:00N 37°57' E 023°38'0 0.0
2018-Jun-16 02:30N 37°57' E 023°38'0 0.0
2018-Jun-16 02:00N 37°57' E 023°38'0 0.0
2018-Jun-16 01:30N 37°57' E 023°38'0 0.0
2018-Jun-16 01:00N 37°57' E 023°38'0 0.0
2018-Jun-16 00:30N 37°57' E 023°38'0 0.0
2018-Jun-16 00:00N 37°57' E 023°38'0 0.0
2018-Jun-15 23:30N 37°57' E 023°38'0 0.0
2018-Jun-15 23:00N 37°57' E 023°38'0 0.0
2018-Jun-15 22:30N 37°57' E 023°38'0 0.0
2018-Jun-15 22:00N 37°57' E 023°38'0 0.0
2018-Jun-15 21:30N 37°57' E 023°38'1121.6
2018-Jun-15 21:00N 37°46' E 023°43'9212.2
2018-Jun-15 13:26N 36°59' E 025°22'717.0
2018-Jun-15 13:00N 37°06' E 025°22'2130.5
2018-Jun-15 12:20N 37°27' E 025°20'1 3.9
2018-Jun-15 12:00N 37°27' E 025°18'1835.6
2018-Jun-15 11:31N 37°09' E 025°22'917.9
2018-Jun-15 11:00N 37°00' E 025°21'8813.7
2018-Jun-15 04:36N 37°40' E 023°43'335.5
2018-Jun-15 04:30N 37°43' E 023°41'1326.7
2018-Jun-15 04:00N 37°57' E 023°38'0 0.1
2018-Jun-15 03:30N 37°57' E 023°38'0 0.0
2018-Jun-15 03:00N 37°57' E 023°38'0 0.0
2018-Jun-15 02:30N 37°57' E 023°38'0 0.0
2018-Jun-15 02:00N 37°57' E 023°38'0 0.0
2018-Jun-15 01:30N 37°57' E 023°38'0 0.0
2018-Jun-15 01:00N 37°57' E 023°38'0 0.0
2018-Jun-15 00:30N 37°57' E 023°38'0 0.0
2018-Jun-15 00:00N 37°57' E 023°38'0 0.0
2018-Jun-14 23:30N 37°57' E 023°38'0 0.0
2018-Jun-14 23:00N 37°57' E 023°38'0 0.0
2018-Jun-14 22:30N 37°57' E 023°38'0 0.0
2018-Jun-14 22:01N 37°57' E 023°38'10013.5
2018-Jun-14 14:35N 36°59' E 025°22'336.4
2018-Jun-14 14:31N 37°02' E 025°21'1122.6
2018-Jun-14 14:01N 37°13' E 025°20'1427.5
2018-Jun-14 13:30N 37°27' E 025°20'4 8.6
2018-Jun-14 13:01N 37°23' E 025°17'1733.9
2018-Jun-14 12:30N 37°06' E 025°22'8911.2
2018-Jun-14 04:30N 37°44' E 023°40'12 1.9
2018-Jun-13 21:49N 37°56' E 023°37'1032.7
2018-Jun-13 21:30N 37°47' E 023°41'9213.6
2018-Jun-13 14:44N 36°59' E 025°21'731.9
2018-Jun-13 14:30N 37°06' E 025°22'1121.7
2018-Jun-13 14:00N 37°17' E 025°20'1020.3
2018-Jun-13 13:31N 37°27' E 025°20'1529.5
2018-Jun-13 13:01N 37°12' E 025°21'918.8
2018-Jun-13 12:31N 37°03' E 025°20'8210.6
2018-Jun-13 04:43N 37°37' E 023°46'735.7
2018-Jun-13 04:30N 37°43' E 023°40'1427.4
2018-Jun-13 04:00N 37°57' E 023°38'0 0.1
2018-Jun-13 03:30N 37°57' E 023°38'0 0.0
2018-Jun-13 03:00N 37°57' E 023°38'0 0.0
2018-Jun-13 02:30N 37°57' E 023°38'0 0.0
2018-Jun-13 02:00N 37°57' E 023°38'0 0.0
2018-Jun-13 01:30N 37°57' E 023°38'0 0.0
2018-Jun-13 01:00N 37°57' E 023°38'0 0.0
2018-Jun-13 00:30N 37°57' E 023°38'0 0.0
2018-Jun-13 00:00N 37°57' E 023°38'0 0.0
2018-Jun-12 23:30N 37°57' E 023°38'0 0.0
2018-Jun-12 23:00N 37°57' E 023°38'0 0.0
2018-Jun-12 22:30N 37°57' E 023°38'0 0.0
2018-Jun-12 22:00N 37°57' E 023°38'0 0.0
2018-Jun-12 21:30N 37°57' E 023°38'0 0.0
2018-Jun-12 21:00N 37°57' E 023°38'612.6
2018-Jun-12 20:31N 37°50' E 023°40'9613.7
2018-Jun-12 13:29N 36°59' E 025°22'715.1
2018-Jun-12 13:01N 37°06' E 025°22'1734.5
2018-Jun-12 12:31N 37°23' E 025°18'4 8.4
2018-Jun-12 12:00N 37°27' E 025°19'1631.2
2018-Jun-12 11:30N 37°12' E 025°21'917.7
2018-Jun-12 11:01N 37°03' E 025°20'8613.3
2018-Jun-12 04:35N 37°40' E 023°43'336.8
2018-Jun-12 04:30N 37°43' E 023°41'1428.4
2018-Jun-12 04:00N 37°57' E 023°38'0 0.1
2018-Jun-12 03:30N 37°57' E 023°38'0 0.0
2018-Jun-12 03:00N 37°57' E 023°38'0 0.0
2018-Jun-12 02:31N 37°57' E 023°38'0 0.0
2018-Jun-12 02:00N 37°57' E 023°38'0 0.0
2018-Jun-12 01:31N 37°57' E 023°38'0 0.0
2018-Jun-12 01:00N 37°57' E 023°38'0 0.0
2018-Jun-12 00:31N 37°57' E 023°38'0 0.0
2018-Jun-12 00:01N 37°57' E 023°38'0 0.0
2018-Jun-11 23:30N 37°57' E 023°38'0 0.0
2018-Jun-11 23:01N 37°57' E 023°38'0 0.0
2018-Jun-11 22:30N 37°57' E 023°38'0 0.0
2018-Jun-11 22:00N 37°57' E 023°38'0 0.0
2018-Jun-11 21:30N 37°57' E 023°38'0 0.0
2018-Jun-11 21:00N 37°57' E 023°38'510.3
2018-Jun-11 20:31N 37°51' E 023°39'9617.1
2018-Jun-11 14:54N 36°59' E 025°21'718.3
2018-Jun-11 14:31N 37°06' E 025°22'1632.4
2018-Jun-11 14:00N 37°22' E 025°18'2 4.8
2018-Jun-11 13:31N 37°25' E 025°18'1732.7
2018-Jun-11 12:59N 37°08' E 025°22'613.8
2018-Jun-11 12:30N 37°01' E 025°21'8811.3
2018-Jun-11 04:40N 37°41' E 023°42'636.6
2018-Jun-11 04:31N 37°47' E 023°39'1020.1
2018-Jun-11 04:00N 37°57' E 023°38'0 0.1
2018-Jun-11 03:31N 37°57' E 023°38'0 0.0
2018-Jun-11 03:00N 37°57' E 023°38'0 0.0
2018-Jun-11 02:30N 37°57' E 023°38'0 0.0
2018-Jun-11 02:01N 37°57' E 023°38'0 0.0
2018-Jun-11 01:30N 37°57' E 023°38'0 0.0
2018-Jun-11 01:00N 37°57' E 023°38'0 0.0
2018-Jun-11 00:31N 37°57' E 023°38'0 0.0
2018-Jun-11 00:01N 37°57' E 023°38'0 0.0
2018-Jun-10 23:30N 37°57' E 023°38'0 0.0
2018-Jun-10 23:00N 37°57' E 023°38'0 0.0
2018-Jun-10 22:30N 37°57' E 023°38'0 0.0
2018-Jun-10 22:01N 37°57' E 023°38'1020.3
2018-Jun-10 21:30N 37°47' E 023°42'9311.8
2018-Jun-10 13:38N 36°59' E 025°22'536.6
2018-Jun-10 13:30N 37°03' E 025°20'1020.7
2018-Jun-10 13:00N 37°14' E 025°20'1326.3
2018-Jun-10 12:30N 37°27' E 025°20'1122.6
2018-Jun-10 12:01N 37°16' E 025°20'1019.3
2018-Jun-10 11:31N 37°06' E 025°22'8512.3
2018-Jun-10 04:38N 37°40' E 023°44'535.7
2018-Jun-10 04:31N 37°43' E 023°41'1326.6
2018-Jun-10 04:00N 37°57' E 023°38'0 0.1
2018-Jun-10 03:30N 37°57' E 023°38'0 0.0
2018-Jun-10 03:00N 37°57' E 023°38'0 0.0
2018-Jun-10 02:30N 37°57' E 023°38'0 0.0
2018-Jun-10 02:00N 37°57' E 023°38'0 0.0
2018-Jun-10 01:30N 37°57' E 023°38'0 0.0
2018-Jun-10 01:00N 37°57' E 023°38'0 0.0
2018-Jun-10 00:30N 37°57' E 023°38'0 0.0
2018-Jun-10 00:00N 37°57' E 023°38'0 0.0
2018-Jun-09 23:30N 37°57' E 023°38'0 0.0
2018-Jun-09 23:00N 37°57' E 023°38'0 0.0
2018-Jun-09 22:30N 37°57' E 023°38'0 0.0
2018-Jun-09 22:00N 37°57' E 023°38'0 0.0
2018-Jun-09 21:30N 37°57' E 023°38'2 4.5
2018-Jun-09 21:01N 37°54' E 023°38'9915.7
2018-Jun-09 14:42N 36°59' E 025°21'732.8
2018-Jun-09 14:31N 37°06' E 025°20'815.1
2018-Jun-09 14:00N 37°13' E 025°20'1427.6
2018-Jun-09 13:30N 37°27' E 025°20'713.2
2018-Jun-09 13:00N 37°21' E 025°18'1529.3
2018-Jun-09 12:30N 37°06' E 025°22'8310.7
2018-Jun-09 04:44N 37°38' E 023°45'834.9
2018-Jun-09 04:31N 37°44' E 023°40'  

Dump ship's entire track history